Loyola Beach, Texas
Current Conditions -  °F | °C
As of 11:56 PM on Friday 28 Nov 2014 (Local Time) from KNQI Reporting Station
Clear Clear  
Wind Chill: 56°   Ceiling: Unl
Heat Index: 56°   Visibility: 10mi
Dew Point: 56°   Wind: 7mph
Humidity: 100%   Direction: 170°S
Pressure: 30.13"   Gusts: NA
Location:  27.3193°N, 97.8839°W
Report Text: KNQI 290556Z AUTO 17006KT 10SM CLR 13/13 A3013 RMK AO2 SLP199 T01330133 10194 20128 402560078 58008 $
Loading
Personal Weather Stations






























Interactive Weather Map New forecast layout! Learn more

10-Day Weather Forecast

Advertisements
Track Severe Weather on mobile